sensor_id;sensor_type;location;lat;lon;timestamp;pressure;altitude;pressure_sealevel;temperature;humidity
37068;BME280;22982;42.848;25.468;2023-12-20T00:00:51;96578.66;;;-0.73;100.00
37068;BME280;22982;42.848;25.468;2023-12-20T00:05:54;96574.41;;;-0.74;100.00
37068;BME280;22982;42.848;25.468;2023-12-20T00:10:57;96547.09;;;-0.90;100.00
37068;BME280;22982;42.848;25.468;2023-12-20T00:16:00;96549.66;;;-0.89;100.00
37068;BME280;22982;42.848;25.468;2023-12-20T00:21:03;96568.47;;;-0.82;100.00
37068;BME280;22982;42.848;25.468;2023-12-20T00:26:08;96559.97;;;-0.90;100.00
37068;BME280;22982;42.848;25.468;2023-12-20T00:31:10;96544.63;;;-1.00;100.00
37068;BME280;22982;42.848;25.468;2023-12-20T00:36:13;96542.81;;;-0.90;100.00
37068;BME280;22982;42.848;25.468;2023-12-20T00:41:17;96521.44;;;-0.98;100.00
37068;BME280;22982;42.848;25.468;2023-12-20T00:46:19;96521.50;;;-1.03;100.00
37068;BME280;22982;42.848;25.468;2023-12-20T00:51:22;96510.31;;;-0.99;100.00
37068;BME280;22982;42.848;25.468;2023-12-20T00:56:25;96517.09;;;-0.93;100.00
37068;BME280;22982;42.848;25.468;2023-12-20T01:01:27;96498.34;;;-1.03;100.00
37068;BME280;22982;42.848;25.468;2023-12-20T01:06:31;96482.06;;;-1.05;100.00
37068;BME280;22982;42.848;25.468;2023-12-20T01:11:34;96481.03;;;-0.91;100.00
37068;BME280;22982;42.848;25.468;2023-12-20T01:16:36;96488.56;;;-0.76;100.00
37068;BME280;22982;42.848;25.468;2023-12-20T01:21:43;96451.00;;;-0.92;100.00
37068;BME280;22982;42.848;25.468;2023-12-20T01:26:46;96466.31;;;-0.80;100.00
37068;BME280;22982;42.848;25.468;2023-12-20T01:31:51;96441.63;;;-0.97;100.00
37068;BME280;22982;42.848;25.468;2023-12-20T01:36:54;96446.03;;;-1.05;100.00
37068;BME280;22982;42.848;25.468;2023-12-20T01:41:56;96441.75;;;-1.06;100.00
37068;BME280;22982;42.848;25.468;2023-12-20T01:47:00;96449.44;;;-1.03;100.00
37068;BME280;22982;42.848;25.468;2023-12-20T01:52:03;96428.88;;;-1.04;100.00
37068;BME280;22982;42.848;25.468;2023-12-20T01:57:07;96405.00;;;-1.17;100.00
37068;BME280;22982;42.848;25.468;2023-12-20T02:02:10;96400.00;;;-1.29;100.00
37068;BME280;22982;42.848;25.468;2023-12-20T02:07:15;96407.84;;;-1.42;100.00
37068;BME280;22982;42.848;25.468;2023-12-20T02:12:18;96395.94;;;-1.50;100.00
37068;BME280;22982;42.848;25.468;2023-12-20T02:17:25;96387.41;;;-1.52;100.00
37068;BME280;22982;42.848;25.468;2023-12-20T02:22:28;96362.56;;;-1.55;100.00
37068;BME280;22982;42.848;25.468;2023-12-20T02:27:35;96377.06;;;-1.46;100.00
37068;BME280;22982;42.848;25.468;2023-12-20T02:32:38;96370.31;;;-1.57;100.00
37068;BME280;22982;42.848;25.468;2023-12-20T02:37:43;96363.44;;;-1.58;100.00
37068;BME280;22982;42.848;25.468;2023-12-20T02:42:46;96365.97;;;-1.51;100.00
37068;BME280;22982;42.848;25.468;2023-12-20T02:47:49;96340.47;;;-1.71;100.00
37068;BME280;22982;42.848;25.468;2023-12-20T02:52:52;96336.19;;;-1.74;100.00
37068;BME280;22982;42.848;25.468;2023-12-20T02:57:55;96323.22;;;-1.63;100.00
37068;BME280;22982;42.848;25.468;2023-12-20T03:03:00;96311.19;;;-1.61;100.00
37068;BME280;22982;42.848;25.468;2023-12-20T03:08:03;96326.50;;;-1.49;100.00
37068;BME280;22982;42.848;25.468;2023-12-20T03:13:06;96311.94;;;-1.50;100.00
37068;BME280;22982;42.848;25.468;2023-12-20T03:18:08;96302.63;;;-1.59;100.00
37068;BME280;22982;42.848;25.468;2023-12-20T03:23:11;96267.59;;;-1.70;100.00
37068;BME280;22982;42.848;25.468;2023-12-20T03:28:17;96284.56;;;-1.56;100.00
37068;BME280;22982;42.848;25.468;2023-12-20T03:33:20;96291.31;;;-1.45;100.00
37068;BME280;22982;42.848;25.468;2023-12-20T03:38:23;96276.84;;;-1.54;100.00
37068;BME280;22982;42.848;25.468;2023-12-20T03:43:26;96270.75;;;-1.48;100.00
37068;BME280;22982;42.848;25.468;2023-12-20T03:48:28;96260.69;;;-1.64;100.00
37068;BME280;22982;42.848;25.468;2023-12-20T03:53:55;96250.66;;;-1.84;100.00
37068;BME280;22982;42.848;25.468;2023-12-20T03:58:58;96259.41;;;-2.02;100.00
37068;BME280;22982;42.848;25.468;2023-12-20T04:04:01;96261.72;;;-1.79;100.00
37068;BME280;22982;42.848;25.468;2023-12-20T04:09:04;96258.28;;;-1.78;100.00
37068;BME280;22982;42.848;25.468;2023-12-20T04:14:06;96241.22;;;-1.85;100.00
37068;BME280;22982;42.848;25.468;2023-12-20T04:19:09;96250.44;;;-1.67;100.00
37068;BME280;22982;42.848;25.468;2023-12-20T04:30:15;96238.31;;;-1.57;100.00
37068;BME280;22982;42.848;25.468;2023-12-20T04:35:20;96241.78;;;-1.60;100.00
37068;BME280;22982;42.848;25.468;2023-12-20T04:40:22;96229.16;;;-1.78;100.00
37068;BME280;22982;42.848;25.468;2023-12-20T04:45:25;96229.00;;;-1.66;100.00
37068;BME280;22982;42.848;25.468;2023-12-20T04:50:28;96217.94;;;-1.71;100.00
37068;BME280;22982;42.848;25.468;2023-12-20T04:55:30;96225.50;;;-1.60;100.00
37068;BME280;22982;42.848;25.468;2023-12-20T05:00:33;96222.97;;;-1.63;100.00
37068;BME280;22982;42.848;25.468;2023-12-20T05:05:36;96212.31;;;-2.02;100.00
37068;BME280;22982;42.848;25.468;2023-12-20T05:10:39;96198.53;;;-1.95;100.00
37068;BME280;22982;42.848;25.468;2023-12-20T05:15:42;96182.09;;;-1.83;100.00
37068;BME280;22982;42.848;25.468;2023-12-20T05:20:44;96196.41;;;-1.62;100.00
37068;BME280;22982;42.848;25.468;2023-12-20T05:25:48;96209.56;;;-1.88;100.00
37068;BME280;22982;42.848;25.468;2023-12-20T05:30:51;96207.66;;;-1.71;100.00
37068;BME280;22982;42.848;25.468;2023-12-20T05:35:53;96179.19;;;-1.59;100.00
37068;BME280;22982;42.848;25.468;2023-12-20T05:40:56;96180.69;;;-1.44;100.00
37068;BME280;22982;42.848;25.468;2023-12-20T05:45:59;96135.22;;;-1.42;100.00
37068;BME280;22982;42.848;25.468;2023-12-20T05:51:02;96180.41;;;-1.25;100.00
37068;BME280;22982;42.848;25.468;2023-12-20T05:56:04;96175.72;;;-0.99;100.00
37068;BME280;22982;42.848;25.468;2023-12-20T06:01:07;96164.91;;;-1.19;100.00
37068;BME280;22982;42.848;25.468;2023-12-20T06:06:10;96168.28;;;-1.17;100.00
37068;BME280;22982;42.848;25.468;2023-12-20T06:11:18;96160.88;;;-0.84;100.00
37068;BME280;22982;42.848;25.468;2023-12-20T06:16:20;96168.69;;;-0.90;100.00
37068;BME280;22982;42.848;25.468;2023-12-20T06:21:26;96159.50;;;-0.54;100.00
37068;BME280;22982;42.848;25.468;2023-12-20T06:26:28;96143.88;;;-0.45;100.00
37068;BME280;22982;42.848;25.468;2023-12-20T06:31:34;96160.66;;;-0.25;100.00
37068;BME280;22982;42.848;25.468;2023-12-20T06:36:36;96152.34;;;0.04;100.00
37068;BME280;22982;42.848;25.468;2023-12-20T06:41:40;96158.16;;;0.14;100.00
37068;BME280;22982;42.848;25.468;2023-12-20T06:46:43;96132.13;;;-0.14;100.00
37068;BME280;22982;42.848;25.468;2023-12-20T06:51:48;96139.00;;;0.26;100.00
37068;BME280;22982;42.848;25.468;2023-12-20T06:56:51;96134.91;;;0.54;100.00
37068;BME280;22982;42.848;25.468;2023-12-20T07:01:53;96132.66;;;0.78;100.00
37068;BME280;22982;42.848;25.468;2023-12-20T07:06:56;96131.78;;;0.42;100.00
37068;BME280;22982;42.848;25.468;2023-12-20T07:12:02;96131.34;;;0.60;100.00
37068;BME280;22982;42.848;25.468;2023-12-20T07:17:09;96118.22;;;1.05;100.00
37068;BME280;22982;42.848;25.468;2023-12-20T07:22:13;96110.72;;;0.94;100.00
37068;BME280;22982;42.848;25.468;2023-12-20T07:27:16;96099.38;;;1.34;100.00
37068;BME280;22982;42.848;25.468;2023-12-20T07:32:19;96103.59;;;2.00;100.00
37068;BME280;22982;42.848;25.468;2023-12-20T07:37:21;96073.81;;;2.71;100.00
37068;BME280;22982;42.848;25.468;2023-12-20T07:42:29;96077.13;;;3.01;100.00
37068;BME280;22982;42.848;25.468;2023-12-20T07:47:31;96076.53;;;3.69;100.00
37068;BME280;22982;42.848;25.468;2023-12-20T07:52:33;96062.25;;;8.54;90.13
37068;BME280;22982;42.848;25.468;2023-12-20T07:57:36;96044.78;;;12.30;59.24
37068;BME280;22982;42.848;25.468;2023-12-20T08:02:39;96048.38;;;12.29;54.89
37068;BME280;22982;42.848;25.468;2023-12-20T08:07:42;96009.72;;;14.41;48.86
37068;BME280;22982;42.848;25.468;2023-12-20T08:12:45;96019.75;;;14.69;47.19
37068;BME280;22982;42.848;25.468;2023-12-20T08:17:48;96011.63;;;15.26;45.26
37068;BME280;22982;42.848;25.468;2023-12-20T08:22:51;95994.72;;;14.96;45.60
37068;BME280;22982;42.848;25.468;2023-12-20T08:27:53;95991.09;;;14.97;46.00
37068;BME280;22982;42.848;25.468;2023-12-20T08:33:02;95968.97;;;15.09;45.47
37068;BME280;22982;42.848;25.468;2023-12-20T08:38:05;95964.84;;;14.52;46.27
37068;BME280;22982;42.848;25.468;2023-12-20T08:43:10;95969.00;;;13.43;48.71
37068;BME280;22982;42.848;25.468;2023-12-20T08:48:13;95935.41;;;12.52;51.06
37068;BME280;22982;42.848;25.468;2023-12-20T08:53:19;95950.28;;;10.62;57.43
37068;BME280;22982;42.848;25.468;2023-12-20T08:58:21;95953.34;;;9.44;65.11
37068;BME280;22982;42.848;25.468;2023-12-20T09:03:25;95940.81;;;9.20;70.57
37068;BME280;22982;42.848;25.468;2023-12-20T09:08:27;95918.66;;;9.40;74.88
37068;BME280;22982;42.848;25.468;2023-12-20T09:13:31;95916.47;;;11.36;63.04
37068;BME280;22982;42.848;25.468;2023-12-20T09:18:34;95892.53;;;12.98;57.46
37068;BME280;22982;42.848;25.468;2023-12-20T09:23:37;95874.44;;;12.93;55.05
37068;BME280;22982;42.848;25.468;2023-12-20T09:28:39;95870.53;;;13.10;55.41
37068;BME280;22982;42.848;25.468;2023-12-20T09:33:44;95860.97;;;13.20;55.46
37068;BME280;22982;42.848;25.468;2023-12-20T09:38:46;95856.63;;;13.87;54.04
37068;BME280;22982;42.848;25.468;2023-12-20T09:43:51;95845.94;;;14.44;51.25
37068;BME280;22982;42.848;25.468;2023-12-20T09:48:57;95824.91;;;14.96;50.69
37068;BME280;22982;42.848;25.468;2023-12-20T09:54:05;95808.38;;;16.15;47.31
37068;BME280;22982;42.848;25.468;2023-12-20T09:59:08;95791.63;;;16.44;46.75
37068;BME280;22982;42.848;25.468;2023-12-20T10:04:12;95780.72;;;16.76;46.20
37068;BME280;22982;42.848;25.468;2023-12-20T10:09:35;95755.03;;;17.34;44.13
37068;BME280;22982;42.848;25.468;2023-12-20T10:14:39;95764.91;;;16.37;46.00
37068;BME280;22982;42.848;25.468;2023-12-20T10:19:44;95750.03;;;16.07;46.87
37068;BME280;22982;42.848;25.468;2023-12-20T10:24:47;95727.47;;;16.32;46.71
37068;BME280;22982;42.848;25.468;2023-12-20T10:29:51;95716.63;;;16.73;45.39
37068;BME280;22982;42.848;25.468;2023-12-20T10:34:54;95713.13;;;16.05;47.41
37068;BME280;22982;42.848;25.468;2023-12-20T10:39:59;95685.88;;;13.81;50.96
37068;BME280;22982;42.848;25.468;2023-12-20T10:45:04;95699.41;;;13.44;53.56
37068;BME280;22982;42.848;25.468;2023-12-20T10:50:08;95684.13;;;13.04;53.30
37068;BME280;22982;42.848;25.468;2023-12-20T10:55:11;95711.69;;;11.97;57.46
37068;BME280;22982;42.848;25.468;2023-12-20T11:00:15;95696.91;;;11.83;59.40
37068;BME280;22982;42.848;25.468;2023-12-20T11:05:31;95692.44;;;11.37;61.75
37068;BME280;22982;42.848;25.468;2023-12-20T11:15:52;95703.47;;;11.53;64.23
37068;BME280;22982;42.848;25.468;2023-12-20T11:21:04;95684.38;;;11.51;67.87
37068;BME280;22982;42.848;25.468;2023-12-20T11:26:07;95679.00;;;11.04;69.20
37068;BME280;22982;42.848;25.468;2023-12-20T11:31:15;95672.00;;;10.92;73.41
37068;BME280;22982;42.848;25.468;2023-12-20T11:36:25;95658.03;;;10.54;75.51
37068;BME280;22982;42.848;25.468;2023-12-20T11:41:28;95657.41;;;10.38;77.67
37068;BME280;22982;42.848;25.468;2023-12-20T11:46:31;95647.56;;;9.90;85.02
37068;BME280;22982;42.848;25.468;2023-12-20T11:51:58;95651.84;;;10.17;84.83
37068;BME280;22982;42.848;25.468;2023-12-20T11:57:02;95621.78;;;10.48;82.02
37068;BME280;22982;42.848;25.468;2023-12-20T12:02:05;95615.59;;;10.86;79.20
37068;BME280;22982;42.848;25.468;2023-12-20T12:07:08;95615.06;;;11.05;79.39
37068;BME280;22982;42.848;25.468;2023-12-20T12:12:12;95597.69;;;11.40;75.16
37068;BME280;22982;42.848;25.468;2023-12-20T12:17:18;95587.28;;;11.85;68.22
37068;BME280;22982;42.848;25.468;2023-12-20T12:22:20;95570.91;;;11.94;68.59
37068;BME280;22982;42.848;25.468;2023-12-20T12:27:29;95557.56;;;11.73;70.35
37068;BME280;22982;42.848;25.468;2023-12-20T12:32:32;95571.50;;;11.51;71.94
37068;BME280;22982;42.848;25.468;2023-12-20T12:37:37;95548.78;;;11.39;73.39
37068;BME280;22982;42.848;25.468;2023-12-20T12:42:47;95516.78;;;11.22;72.67
37068;BME280;22982;42.848;25.468;2023-12-20T12:47:49;95548.94;;;11.13;73.09
37068;BME280;22982;42.848;25.468;2023-12-20T12:52:53;95528.13;;;10.75;73.81
37068;BME280;22982;42.848;25.468;2023-12-20T12:57:55;95550.59;;;10.29;76.19
37068;BME280;22982;42.848;25.468;2023-12-20T13:03:03;95527.97;;;9.65;82.96
37068;BME280;22982;42.848;25.468;2023-12-20T13:08:06;95536.09;;;9.22;90.90
37068;BME280;22982;42.848;25.468;2023-12-20T13:13:08;95544.78;;;8.82;96.90
37068;BME280;22982;42.848;25.468;2023-12-20T13:18:16;95523.34;;;8.50;99.85
37068;BME280;22982;42.848;25.468;2023-12-20T13:23:21;95542.16;;;8.82;96.99
37068;BME280;22982;42.848;25.468;2023-12-20T13:28:28;95528.91;;;8.86;97.93
37068;BME280;22982;42.848;25.468;2023-12-20T13:33:30;95537.81;;;8.69;99.02
37068;BME280;22982;42.848;25.468;2023-12-20T13:38:33;95533.97;;;8.47;100.00
37068;BME280;22982;42.848;25.468;2023-12-20T13:43:36;95535.75;;;8.47;100.00
37068;BME280;22982;42.848;25.468;2023-12-20T13:48:43;95530.94;;;8.26;100.00
37068;BME280;22982;42.848;25.468;2023-12-20T13:53:45;95521.44;;;8.11;100.00
37068;BME280;22982;42.848;25.468;2023-12-20T13:58:49;95537.00;;;8.12;100.00
37068;BME280;22982;42.848;25.468;2023-12-20T14:03:53;95523.50;;;7.77;100.00
37068;BME280;22982;42.848;25.468;2023-12-20T14:08:55;95530.88;;;7.56;100.00
37068;BME280;22982;42.848;25.468;2023-12-20T14:13:58;95532.00;;;7.37;100.00
37068;BME280;22982;42.848;25.468;2023-12-20T14:19:01;95493.69;;;6.79;100.00
37068;BME280;22982;42.848;25.468;2023-12-20T14:24:05;95535.28;;;6.80;100.00
37068;BME280;22982;42.848;25.468;2023-12-20T14:29:08;95526.00;;;6.60;100.00
37068;BME280;22982;42.848;25.468;2023-12-20T14:34:11;95532.56;;;6.36;100.00
37068;BME280;22982;42.848;25.468;2023-12-20T14:39:13;95508.16;;;6.06;100.00
37068;BME280;22982;42.848;25.468;2023-12-20T14:44:16;95517.59;;;5.91;100.00
37068;BME280;22982;42.848;25.468;2023-12-20T14:49:19;95532.81;;;5.50;100.00
37068;BME280;22982;42.848;25.468;2023-12-20T14:54:27;95532.91;;;5.31;100.00
37068;BME280;22982;42.848;25.468;2023-12-20T14:59:29;95548.22;;;5.20;100.00
37068;BME280;22982;42.848;25.468;2023-12-20T15:04:32;95549.28;;;5.15;100.00
37068;BME280;22982;42.848;25.468;2023-12-20T15:09:35;95534.47;;;4.83;100.00
37068;BME280;22982;42.848;25.468;2023-12-20T15:15:05;95557.06;;;4.63;100.00
37068;BME280;22982;42.848;25.468;2023-12-20T15:20:08;95547.63;;;4.24;100.00
37068;BME280;22982;42.848;25.468;2023-12-20T15:25:12;95556.00;;;4.31;100.00
37068;BME280;22982;42.848;25.468;2023-12-20T15:30:22;95558.44;;;4.15;100.00
37068;BME280;22982;42.848;25.468;2023-12-20T15:35:26;95570.34;;;4.19;100.00
37068;BME280;22982;42.848;25.468;2023-12-20T15:40:29;95559.38;;;4.14;100.00
37068;BME280;22982;42.848;25.468;2023-12-20T15:45:31;95560.47;;;4.08;100.00
37068;BME280;22982;42.848;25.468;2023-12-20T15:50:37;95552.00;;;4.05;100.00
37068;BME280;22982;42.848;25.468;2023-12-20T15:55:39;95570.03;;;4.08;100.00
37068;BME280;22982;42.848;25.468;2023-12-20T16:00:43;95537.78;;;3.94;100.00
37068;BME280;22982;42.848;25.468;2023-12-20T16:05:45;95573.03;;;4.36;100.00
37068;BME280;22982;42.848;25.468;2023-12-20T16:10:49;95586.66;;;6.15;100.00
37068;BME280;22982;42.848;25.468;2023-12-20T16:15:52;95604.16;;;7.37;100.00
37068;BME280;22982;42.848;25.468;2023-12-20T16:20:57;95608.69;;;6.73;100.00
37068;BME280;22982;42.848;25.468;2023-12-20T16:25:59;95600.78;;;5.93;100.00
37068;BME280;22982;42.848;25.468;2023-12-20T16:31:02;95597.44;;;5.05;100.00
37068;BME280;22982;42.848;25.468;2023-12-20T16:36:05;95597.84;;;4.61;100.00
37068;BME280;22982;42.848;25.468;2023-12-20T16:41:08;95580.00;;;3.98;100.00
37068;BME280;22982;42.848;25.468;2023-12-20T16:46:10;95587.13;;;3.93;100.00
37068;BME280;22982;42.848;25.468;2023-12-20T16:51:13;95567.28;;;3.73;100.00
37068;BME280;22982;42.848;25.468;2023-12-20T16:56:16;95567.88;;;3.59;100.00
37068;BME280;22982;42.848;25.468;2023-12-20T17:01:19;95578.47;;;3.54;100.00
37068;BME280;22982;42.848;25.468;2023-12-20T17:06:23;95567.28;;;3.33;100.00
37068;BME280;22982;42.848;25.468;2023-12-20T17:11:29;95590.25;;;3.00;100.00
37068;BME280;22982;42.848;25.468;2023-12-20T17:16:31;95585.06;;;3.00;100.00
37068;BME280;22982;42.848;25.468;2023-12-20T17:21:34;95536.56;;;2.62;100.00
37068;BME280;22982;42.848;25.468;2023-12-20T17:26:37;95571.72;;;2.68;100.00
37068;BME280;22982;42.848;25.468;2023-12-20T17:31:40;95568.06;;;2.52;100.00
37068;BME280;22982;42.848;25.468;2023-12-20T17:36:44;95582.66;;;2.53;100.00
37068;BME280;22982;42.848;25.468;2023-12-20T17:41:49;95540.97;;;2.38;100.00
37068;BME280;22982;42.848;25.468;2023-12-20T17:46:51;95571.41;;;2.54;100.00
37068;BME280;22982;42.848;25.468;2023-12-20T17:51:55;95587.63;;;2.59;100.00
37068;BME280;22982;42.848;25.468;2023-12-20T17:56:57;95579.25;;;2.52;100.00
37068;BME280;22982;42.848;25.468;2023-12-20T18:02:04;95591.47;;;2.48;100.00
37068;BME280;22982;42.848;25.468;2023-12-20T18:07:06;95567.09;;;2.32;100.00
37068;BME280;22982;42.848;25.468;2023-12-20T18:12:09;95573.81;;;2.36;100.00
37068;BME280;22982;42.848;25.468;2023-12-20T18:17:12;95567.56;;;2.42;100.00
37068;BME280;22982;42.848;25.468;2023-12-20T18:22:15;95577.91;;;2.42;100.00
37068;BME280;22982;42.848;25.468;2023-12-20T18:27:17;95582.50;;;2.35;100.00
37068;BME280;22982;42.848;25.468;2023-12-20T18:32:19;95584.53;;;2.27;100.00
37068;BME280;22982;42.848;25.468;2023-12-20T18:37:22;95569.19;;;2.22;100.00
37068;BME280;22982;42.848;25.468;2023-12-20T18:42:24;95582.97;;;2.23;100.00
37068;BME280;22982;42.848;25.468;2023-12-20T18:47:30;95587.00;;;2.30;100.00
37068;BME280;22982;42.848;25.468;2023-12-20T18:52:33;95564.19;;;2.18;100.00
37068;BME280;22982;42.848;25.468;2023-12-20T18:57:36;95586.03;;;2.33;100.00
37068;BME280;22982;42.848;25.468;2023-12-20T19:02:38;95559.03;;;2.18;100.00
37068;BME280;22982;42.848;25.468;2023-12-20T19:07:41;95553.22;;;2.11;100.00
37068;BME280;22982;42.848;25.468;2023-12-20T19:12:43;95549.25;;;2.02;100.00
37068;BME280;22982;42.848;25.468;2023-12-20T19:17:47;95570.41;;;2.14;100.00
37068;BME280;22982;42.848;25.468;2023-12-20T19:22:50;95529.34;;;1.82;100.00
37068;BME280;22982;42.848;25.468;2023-12-20T19:27:52;95559.69;;;2.01;100.00
37068;BME280;22982;42.848;25.468;2023-12-20T19:32:55;95552.97;;;1.95;100.00
37068;BME280;22982;42.848;25.468;2023-12-20T19:37:58;95554.91;;;1.90;100.00
37068;BME280;22982;42.848;25.468;2023-12-20T19:43:00;95547.19;;;1.66;100.00
37068;BME280;22982;42.848;25.468;2023-12-20T19:48:04;95558.25;;;1.70;100.00
37068;BME280;22982;42.848;25.468;2023-12-20T19:53:07;95562.88;;;1.60;100.00
37068;BME280;22982;42.848;25.468;2023-12-20T19:58:09;95564.59;;;1.61;100.00
37068;BME280;22982;42.848;25.468;2023-12-20T20:03:11;95560.69;;;1.49;100.00
37068;BME280;22982;42.848;25.468;2023-12-20T20:08:15;95558.94;;;1.50;100.00
37068;BME280;22982;42.848;25.468;2023-12-20T20:13:18;95571.84;;;1.50;100.00
37068;BME280;22982;42.848;25.468;2023-12-20T20:18:20;95579.06;;;1.42;100.00
37068;BME280;22982;42.848;25.468;2023-12-20T20:23:24;95552.59;;;1.10;100.00
37068;BME280;22982;42.848;25.468;2023-12-20T20:28:26;95581.66;;;1.17;100.00
37068;BME280;22982;42.848;25.468;2023-12-20T20:33:31;95587.03;;;1.10;100.00
37068;BME280;22982;42.848;25.468;2023-12-20T20:38:33;95584.88;;;0.98;100.00
37068;BME280;22982;42.848;25.468;2023-12-20T20:43:40;95582.47;;;0.92;100.00
37068;BME280;22982;42.848;25.468;2023-12-20T20:48:43;95577.78;;;0.78;100.00
37068;BME280;22982;42.848;25.468;2023-12-20T20:53:53;95574.41;;;0.76;100.00
37068;BME280;22982;42.848;25.468;2023-12-20T20:59:12;95583.56;;;0.85;100.00
37068;BME280;22982;42.848;25.468;2023-12-20T21:04:15;95579.66;;;0.73;100.00
37068;BME280;22982;42.848;25.468;2023-12-20T21:09:19;95576.69;;;0.59;100.00
37068;BME280;22982;42.848;25.468;2023-12-20T21:14:21;95565.81;;;0.49;100.00
37068;BME280;22982;42.848;25.468;2023-12-20T21:19:24;95575.41;;;0.45;100.00
37068;BME280;22982;42.848;25.468;2023-12-20T21:24:32;95577.69;;;0.54;100.00
37068;BME280;22982;42.848;25.468;2023-12-20T21:29:34;95566.63;;;0.51;100.00
37068;BME280;22982;42.848;25.468;2023-12-20T21:34:37;95570.13;;;0.48;100.00
37068;BME280;22982;42.848;25.468;2023-12-20T21:39:39;95590.69;;;0.51;100.00
37068;BME280;22982;42.848;25.468;2023-12-20T21:44:42;95580.41;;;0.50;100.00
37068;BME280;22982;42.848;25.468;2023-12-20T21:49:45;95560.13;;;0.39;100.00
37068;BME280;22982;42.848;25.468;2023-12-20T21:54:48;95568.34;;;0.50;100.00
37068;BME280;22982;42.848;25.468;2023-12-20T21:59:51;95565.09;;;0.45;100.00
37068;BME280;22982;42.848;25.468;2023-12-20T22:04:53;95554.16;;;0.37;100.00
37068;BME280;22982;42.848;25.468;2023-12-20T22:09:55;95544.44;;;0.18;100.00
37068;BME280;22982;42.848;25.468;2023-12-20T22:14:59;95540.13;;;0.19;100.00
37068;BME280;22982;42.848;25.468;2023-12-20T22:20:02;95551.50;;;0.12;100.00
37068;BME280;22982;42.848;25.468;2023-12-20T22:25:05;95536.78;;;0.15;100.00
37068;BME280;22982;42.848;25.468;2023-12-20T22:30:08;95546.75;;;0.26;100.00
37068;BME280;22982;42.848;25.468;2023-12-20T22:35:11;95536.13;;;0.37;100.00
37068;BME280;22982;42.848;25.468;2023-12-20T22:40:14;95527.94;;;0.24;100.00
37068;BME280;22982;42.848;25.468;2023-12-20T22:45:18;95536.19;;;0.34;100.00
37068;BME280;22982;42.848;25.468;2023-12-20T22:50:22;95533.66;;;0.32;100.00
37068;BME280;22982;42.848;25.468;2023-12-20T22:55:25;95505.75;;;0.18;100.00
37068;BME280;22982;42.848;25.468;2023-12-20T23:00:32;95505.38;;;0.31;100.00
37068;BME280;22982;42.848;25.468;2023-12-20T23:05:34;95499.53;;;0.26;100.00
37068;BME280;22982;42.848;25.468;2023-12-20T23:10:37;95519.06;;;0.33;100.00
37068;BME280;22982;42.848;25.468;2023-12-20T23:15:40;95512.91;;;0.37;100.00
37068;BME280;22982;42.848;25.468;2023-12-20T23:20:43;95500.06;;;0.35;100.00
37068;BME280;22982;42.848;25.468;2023-12-20T23:25:45;95493.84;;;0.14;100.00
37068;BME280;22982;42.848;25.468;2023-12-20T23:30:49;95487.94;;;0.11;100.00
37068;BME280;22982;42.848;25.468;2023-12-20T23:35:51;95504.31;;;0.10;100.00
37068;BME280;22982;42.848;25.468;2023-12-20T23:40:55;95511.88;;;0.14;100.00
37068;BME280;22982;42.848;25.468;2023-12-20T23:45:57;95525.88;;;0.34;100.00
37068;BME280;22982;42.848;25.468;2023-12-20T23:51:01;95523.16;;;0.38;100.00
37068;BME280;22982;42.848;25.468;2023-12-20T23:56:04;95512.41;;;0.26;100.00
